Time;durP1;ratioP1;P1;durP2;ratioP2;P2;SDS_P1;SDS_P2;PMS_P1;PMS_P2;Temp;Humidity;BMP_temperature;BMP_pressure;BME280_temperature;BME280_humidity;BME280_pressure;Samples;Min_cycle;Max_cycle;Signal;HPM_P1;HPM_P2
2021/12/05 00:21:44;;;;;;;10.55;3.65;;;;;;;3.40;98.04;99184.22;690957;28;1250;-51
2021/12/05 00:22:17;;;;;;;10.48;3.42;;;;;;;3.34;99.20;99188.56;689364;28;4427;-51
2021/12/05 00:22:41;;;;;;;10.85;4.07;;;;;;;3.33;97.74;99187.66;688981;28;3376;-52
2021/12/05 00:23:09;;;;;;;11.42;4.24;;;;;;;3.29;97.71;99185.09;689094;28;2044;-52
2021/12/05 00:23:37;;;;;;;12.40;4.10;;;;;;;3.24;99.58;99192.84;688787;28;1296;-54
2021/12/05 00:24:05;;;;;;;11.23;4.40;;;;;;;3.25;100.00;99184.22;692834;28;1242;-54
2021/12/05 00:24:31;;;;;;;11.55;4.18;;;;;;;3.26;99.57;99190.25;692374;28;1508;-50
2021/12/05 00:24:56;;;;;;;11.13;3.38;;;;;;;3.21;100.00;99197.97;692559;28;1100;-54
2021/12/05 00:25:27;;;;;;;11.77;3.55;;;;;;;3.12;100.00;99185.94;689371;28;6029;-52
2021/12/05 00:25:52;;;;;;;10.85;3.65;;;;;;;3.08;100.00;99197.09;686732;28;3318;-50
2021/12/05 00:26:17;;;;;;;10.63;3.53;;;;;;;3.00;100.00;99197.06;686788;28;1323;-52
2021/12/05 00:26:38;;;;;;;12.90;4.20;;;;;;;3.01;100.00;99203.97;686371;28;1216;-54
2021/12/05 00:27:06;;;;;;;9.88;3.60;;;;;;;3.01;100.00;99195.38;684994;28;1512;-52
2021/12/05 00:27:35;;;;;;;12.57;4.07;;;;;;;2.97;100.00;99199.66;683387;28;1172;-53
2021/12/05 00:31:19;;;;;;;12.90;4.93;;;;;;;2.89;100.00;99197.06;691330;28;4423;-54
2021/12/05 00:43:24;;;;;;;9.77;3.17;;;;;;;3.18;100.00;99209.16;690870;28;4418;-55
2021/12/05 00:52:05;;;;;;;9.95;2.90;;;;;;;2.87;100.00;99210.81;689089;28;3387;-52
2021/12/05 00:53:05;;;;;;;9.32;2.50;;;;;;;2.92;100.00;99210.84;685185;28;1986;-54
2021/12/05 00:54:08;;;;;;;9.90;2.70;;;;;;;3.10;99.74;99212.59;685322;28;1572;-49
2021/12/05 00:56:08;;;;;;;9.13;2.65;;;;;;;3.26;98.03;99214.34;692091;28;1415;-49
2021/12/05 01:00:10;;;;;;;9.30;2.72;;;;;;;3.32;98.14;99211.78;689802;28;2149;-50
2021/12/05 01:01:38;;;;;;;11.57;3.65;;;;;;;3.19;98.74;99210.03;684476;28;4925;-50
2021/12/05 01:04:44;;;;;;;8.95;2.85;;;;;;;3.38;97.81;99206.63;686506;28;4879;-50
2021/12/05 01:05:28;;;;;;;8.65;2.67;;;;;;;3.41;98.09;99211.78;685197;28;1339;-52
2021/12/05 01:07:31;;;;;;;8.20;2.45;;;;;;;3.36;97.82;99217.81;691662;28;1518;-52
2021/12/05 01:07:57;;;;;;;9.77;2.95;;;;;;;3.34;99.02;99220.41;688152;28;4801;-50
2021/12/05 01:10:15;;;;;;;8.40;2.63;;;;;;;3.31;97.26;99215.22;691279;28;4365;-51
2021/12/05 01:12:39;;;;;;;9.38;2.65;;;;;;;3.15;100.00;99218.66;693476;28;1331;-51
2021/12/05 01:14:23;;;;;;;9.57;2.83;;;;;;;3.02;100.00;99212.59;687306;28;1183;-56
2021/12/05 01:15:20;;;;;;;8.88;2.50;;;;;;;3.26;97.55;99208.34;690539;28;1541;-54
2021/12/05 01:15:41;;;;;;;9.82;2.55;;;;;;;3.21;97.63;99213.47;688378;28;1730;-51
2021/12/05 01:16:09;;;;;;;6.38;2.38;;;;;;;3.21;98.14;99208.31;685108;28;4502;-52
2021/12/05 01:16:31;;;;;;;8.50;2.40;;;;;;;3.25;97.26;99212.63;689162;28;1362;-53
2021/12/05 01:16:54;;;;;;;10.73;2.40;;;;;;;3.29;96.77;99209.19;687649;28;2921;-51
2021/12/05 01:17:19;;;;;;;8.98;2.20;;;;;;;3.24;97.87;99210.94;689434;28;3359;-53
2021/12/05 01:18:01;;;;;;;10.32;2.45;;;;;;;3.26;98.38;99214.34;689603;28;1348;-51
2021/12/05 01:18:24;;;;;;;10.82;2.53;;;;;;;3.28;97.55;99211.78;692461;28;1260;-51
2021/12/05 01:18:45;;;;;;;11.07;2.72;;;;;;;3.28;97.43;99215.25;691546;28;1381;-52
2021/12/05 01:19:08;;;;;;;11.35;2.88;;;;;;;3.24;97.69;99213.50;689952;28;4561;-56
2021/12/05 01:19:32;;;;;;;9.23;2.50;;;;;;;3.20;97.75;99216.94;691770;28;1314;-53
2021/12/05 01:19:55;;;;;;;7.45;2.38;;;;;;;3.16;98.83;99208.31;688835;28;3314;-51
2021/12/05 01:20:18;;;;;;;8.18;2.55;;;;;;;3.14;97.45;99217.75;686055;28;3697;-54
2021/12/05 01:20:47;;;;;;;8.82;2.33;;;;;;;3.14;97.22;99216.91;690918;28;1743;-51
2021/12/05 01:21:12;;;;;;;9.13;2.25;;;;;;;3.12;98.52;99205.72;688786;28;1335;-51
2021/12/05 01:21:34;;;;;;;7.82;3.00;;;;;;;3.09;99.58;99216.03;685962;28;1304;-51
2021/12/05 01:21:59;;;;;;;9.93;2.67;;;;;;;3.10;98.82;99215.19;686063;28;4537;-52
2021/12/05 01:22:22;;;;;;;8.60;2.22;;;;;;;3.05;99.11;99218.63;687584;28;1410;-50
2021/12/05 01:22:53;;;;;;;10.90;2.63;;;;;;;3.02;100.00;99210.03;686126;28;3181;-50
2021/12/05 01:23:55;;;;;;;8.32;2.47;;;;;;;2.93;100.00;99217.72;686383;28;1271;-53
2021/12/05 01:25:23;;;;;;;8.18;2.30;;;;;;;2.86;100.00;99222.84;691392;28;5437;-53
2021/12/05 01:26:16;;;;;;;10.27;2.33;;;;;;;2.81;100.00;99223.69;689398;28;3936;-50
2021/12/05 01:27:08;;;;;;;7.73;2.40;;;;;;;2.99;99.19;99218.63;681792;28;1408;-53
2021/12/05 01:27:42;;;;;;;7.90;2.45;;;;;;;2.95;100.00;99227.19;684287;28;1578;-52
2021/12/05 01:28:14;;;;;;;8.88;2.50;;;;;;;2.91;100.00;99222.88;687305;28;4701;-53
2021/12/05 01:29:01;;;;;;;7.90;2.33;;;;;;;2.89;99.70;99222.00;685470;28;2079;-52
2021/12/05 01:30:44;;;;;;;7.95;2.25;;;;;;;2.87;100.00;99228.91;681098;28;1271;-52
2021/12/05 01:32:23;;;;;;;9.27;2.35;;;;;;;2.77;100.00;99222.84;689045;28;1579;-51
2021/12/05 01:33:55;;;;;;;7.50;2.50;;;;;;;2.81;100.00;99234.03;689319;28;1430;-54
2021/12/05 01:35:10;;;;;;;10.18;2.70;;;;;;;2.82;100.00;99235.75;689369;28;3589;-52
2021/12/05 01:36:29;;;;;;;8.93;2.70;;;;;;;2.91;100.00;99235.78;689986;28;1982;-52
2021/12/05 01:37:07;;;;;;;11.00;2.80;;;;;;;2.90;100.00;99231.47;682397;28;1331;-52
2021/12/05 01:37:45;;;;;;;7.40;2.92;;;;;;;2.87;100.00;99236.66;684521;28;5364;-53
2021/12/05 01:38:27;;;;;;;11.73;3.45;;;;;;;2.86;100.00;99237.50;686539;28;1712;-51
2021/12/05 01:39:39;;;;;;;9.68;2.78;;;;;;;2.81;100.00;99237.47;686433;28;1244;-54
2021/12/05 01:40:44;;;;;;;9.13;2.88;;;;;;;2.80;100.00;99237.47;682095;28;4994;-53
2021/12/05 01:41:32;;;;;;;8.25;2.78;;;;;;;2.81;100.00;99236.59;681803;28;1296;-50
2021/12/05 01:50:04;;;;;;;9.60;2.92;;;;;;;2.86;100.00;99246.09;693700;28;4452;-50
2021/12/05 01:50:47;;;;;;;10.07;2.97;;;;;;;2.86;100.00;99242.66;689020;28;1497;-50
2021/12/05 01:51:56;;;;;;;9.40;2.90;;;;;;;2.90;100.00;99249.56;686405;28;1404;-51
2021/12/05 01:53:46;;;;;;;7.88;2.78;;;;;;;2.96;100.00;99241.81;688738;28;1313;-50
2021/12/05 02:08:48;;;;;;;9.73;2.58;;;;;;;3.16;97.55;99241.03;685732;28;1261;-52
2021/12/05 02:09:37;;;;;;;7.63;2.67;;;;;;;3.24;96.68;99239.34;682986;28;3508;-50
2021/12/05 02:10:59;;;;;;;10.82;2.95;;;;;;;3.46;95.74;99244.53;686559;28;1533;-51
2021/12/05 02:15:07;;;;;;;8.15;2.60;;;;;;;3.43;96.05;99235.03;688969;28;3354;-50
2021/12/05 02:29:20;;;;;;;7.30;2.50;;;;;;;3.27;97.04;99241.91;686200;28;5277;-53
2021/12/05 02:32:12;;;;;;;9.30;2.88;;;;;;;3.23;98.30;99235.88;676026;29;1346;-50
2021/12/05 02:33:21;;;;;;;8.05;2.75;;;;;;;3.36;96.62;99231.56;678382;29;1210;-51
2021/12/05 02:39:31;;;;;;;7.90;2.90;;;;;;;3.16;98.46;99241.88;688715;28;4850;-50
2021/12/05 02:41:34;;;;;;;7.75;3.00;;;;;;;3.20;98.36;99243.63;689062;28;1202;-52
2021/12/05 02:41:56;;;;;;;8.35;2.72;;;;;;;3.18;98.03;99239.31;688197;28;1594;-53
2021/12/05 02:42:30;;;;;;;9.23;2.78;;;;;;;3.13;99.07;99247.06;687769;28;1745;-50
2021/12/05 02:43:09;;;;;;;7.28;2.72;;;;;;;3.10;99.07;99244.44;688253;28;1203;-51
2021/12/05 02:43:34;;;;;;;8.77;2.70;;;;;;;3.08;98.84;99242.72;685208;28;5109;-51
2021/12/05 02:44:00;;;;;;;10.75;3.60;;;;;;;3.07;98.85;99244.44;690536;28;1102;-52
2021/12/05 02:44:24;;;;;;;8.60;3.63;;;;;;;3.04;99.12;99245.28;688713;28;1437;-55
2021/12/05 02:44:46;;;;;;;7.50;2.72;;;;;;;3.03;99.24;99246.16;686968;28;1291;-51
2021/12/05 02:45:10;;;;;;;8.98;2.92;;;;;;;3.05;98.81;99238.41;684582;28;1496;-51
2021/12/05 02:45:32;;;;;;;9.90;3.00;;;;;;;3.03;98.32;99243.59;683545;28;1160;-50
2021/12/05 02:45:57;;;;;;;9.70;2.80;;;;;;;3.03;98.79;99241.00;682816;28;1211;-52
2021/12/05 02:46:21;;;;;;;11.05;3.10;;;;;;;3.02;98.90;99241.00;682596;28;5063;-50
2021/12/05 02:46:45;;;;;;;9.93;2.85;;;;;;;3.03;99.42;99240.13;684717;28;3681;-53
2021/12/05 02:47:19;;;;;;;7.25;2.60;;;;;;;3.00;99.76;99240.97;691109;28;1388;-51
2021/12/05 02:47:48;;;;;;;9.43;3.17;;;;;;;2.99;100.00;99238.38;689311;28;1300;-50
2021/12/05 02:48:09;;;;;;;10.48;3.20;;;;;;;2.97;100.00;99238.38;687734;28;1388;-50
2021/12/05 02:48:32;;;;;;;9.40;2.75;;;;;;;2.97;100.00;99243.53;686189;28;1396;-52
2021/12/05 02:48:59;;;;;;;7.25;2.65;;;;;;;2.96;100.00;99240.97;685219;28;1363;-55
2021/12/05 02:49:20;;;;;;;7.82;2.88;;;;;;;2.94;100.00;99240.97;680692;28;5104;-53
2021/12/05 02:49:45;;;;;;;11.50;3.05;;;;;;;2.95;100.00;99242.69;683950;28;1099;-51
2021/12/05 02:50:10;;;;;;;9.75;3.10;;;;;;;2.94;100.00;99240.97;680813;28;1475;-51
2021/12/05 02:50:32;;;;;;;10.43;3.15;;;;;;;2.96;100.00;99240.97;683265;28;2058;-53
2021/12/05 02:50:53;;;;;;;11.07;3.03;;;;;;;2.94;100.00;99238.38;682896;28;1474;-51
2021/12/05 02:51:20;;;;;;;8.40;2.88;;;;;;;2.97;100.00;99240.97;685282;28;1199;-52
2021/12/05 02:51:54;;;;;;;10.30;3.05;;;;;;;3.13;99.34;99246.16;686744;28;1227;-51
2021/12/05 02:52:23;;;;;;;8.65;2.90;;;;;;;3.12;99.16;99244.47;683182;28;5369;-55
2021/12/05 02:52:44;;;;;;;10.10;3.30;;;;;;;3.08;99.10;99238.41;686393;28;1262;-54
2021/12/05 02:53:16;;;;;;;10.75;3.40;;;;;;;3.06;99.24;99241.00;687100;28;2497;-55
2021/12/05 02:53:43;;;;;;;12.30;3.30;;;;;;;3.03;99.62;99238.41;684378;28;1515;-53
2021/12/05 02:54:09;;;;;;;12.27;3.83;;;;;;;3.01;100.00;99234.94;684818;28;1518;-51
2021/12/05 02:54:34;;;;;;;8.80;3.47;;;;;;;2.99;100.00;99240.97;684333;28;1349;-52
2021/12/05 02:55:05;;;;;;;11.13;3.60;;;;;;;3.00;100.00;99240.97;683423;28;4841;-53
2021/12/05 02:55:41;;;;;;;9.18;2.83;;;;;;;3.18;98.86;99236.72;682949;28;1392;-51
2021/12/05 02:56:04;;;;;;;9.27;2.80;;;;;;;3.26;97.29;99234.16;680931;28;1356;-50
2021/12/05 02:56:26;;;;;;;9.13;2.60;;;;;;;3.31;97.73;99237.59;681888;28;1713;-50
2021/12/05 02:56:50;;;;;;;9.25;2.70;;;;;;;3.29;97.94;99241.91;685255;28;2043;-51
2021/12/05 02:57:13;;;;;;;11.95;3.10;;;;;;;3.27;97.21;99229.00;686462;28;1239;-53
2021/12/05 02:58:23;;;;;;;8.52;2.65;;;;;;;3.23;97.93;99224.69;689822;28;4673;-51
2021/12/05 02:58:54;;;;;;;9.48;2.60;;;;;;;3.23;97.14;99232.44;688230;28;1242;-52
2021/12/05 02:59:40;;;;;;;8.80;2.67;;;;;;;3.29;97.20;99231.59;686048;28;1578;-54
2021/12/05 02:59:59;;;;;;;7.78;2.53;;;;;;;3.25;96.90;99228.13;683309;28;1318;-51
2021/12/05 03:00:36;;;;;;;8.60;2.50;;;;;;;3.23;97.44;99233.28;685139;28;1238;-52
2021/12/05 03:01:10;;;;;;;7.05;2.53;;;;;;;3.17;98.29;99233.28;685545;28;4634;-51
2021/12/05 03:01:41;;;;;;;10.30;2.72;;;;;;;3.14;100.00;99237.56;690726;28;1138;-51
2021/12/05 03:02:12;;;;;;;9.27;2.60;;;;;;;3.11;99.53;99229.81;692395;28;1274;-52
2021/12/05 03:02:39;;;;;;;7.22;2.60;;;;;;;3.11;100.00;99235.00;692058;28;1217;-51
2021/12/05 03:03:00;;;;;;;7.55;2.70;;;;;;;3.14;99.13;99235.00;686841;28;1361;-54
2021/12/05 03:03:24;;;;;;;7.57;2.55;;;;;;;3.11;98.24;99230.69;685769;28;3227;-52
2021/12/05 03:03:45;;;;;;;7.78;2.50;;;;;;;3.15;98.26;99231.56;682610;28;1378;-51
2021/12/05 03:04:06;;;;;;;6.90;2.55;;;;;;;3.13;98.69;99238.41;683087;28;4476;-53
2021/12/05 03:04:31;;;;;;;8.25;2.60;;;;;;;3.18;98.28;99234.13;686111;28;1481;-52
2021/12/05 03:04:54;;;;;;;8.02;2.47;;;;;;;3.18;98.20;99236.72;686336;28;2089;-51
2021/12/05 03:05:19;;;;;;;10.35;3.10;;;;;;;3.17;98.81;99237.56;686950;28;1302;-51
2021/12/05 03:05:43;;;;;;;9.90;2.67;;;;;;;3.13;99.55;99238.41;688357;28;1169;-52
2021/12/05 03:06:18;;;;;;;10.18;2.75;;;;;;;3.10;100.00;99233.25;688647;28;3372;-52
2021/12/05 03:06:49;;;;;;;10.32;2.60;;;;;;;3.15;98.58;99234.13;688237;28;1361;-51
2021/12/05 03:07:13;;;;;;;8.57;2.65;;;;;;;3.21;98.14;99229.84;687271;28;4535;-51
2021/12/05 03:07:38;;;;;;;8.68;2.60;;;;;;;3.24;98.45;99232.44;686579;28;1436;-53
2021/12/05 03:08:01;;;;;;;8.05;2.40;;;;;;;3.48;95.85;99224.72;690765;28;1801;-51
2021/12/05 03:08:24;;;;;;;10.20;2.75;;;;;;;3.41;96.17;99222.13;688892;28;1272;-52
2021/12/05 03:08:46;;;;;;;9.90;3.00;;;;;;;3.35;96.77;99222.13;689514;28;1301;-51
2021/12/05 03:09:13;;;;;;;9.82;2.90;;;;;;;3.35;97.04;99227.28;691031;28;3517;-51
2021/12/05 03:09:34;;;;;;;6.90;2.40;;;;;;;3.35;96.79;99229.00;688507;28;2741;-52
2021/12/05 03:09:54;;;;;;;9.27;2.60;;;;;;;3.52;95.30;99222.13;687249;28;4669;-52
2021/12/05 03:10:19;;;;;;;11.55;2.67;;;;;;;3.50;94.74;99216.13;686617;28;2577;-53
2021/12/05 03:10:40;;;;;;;9.60;2.55;;;;;;;3.47;95.27;99215.25;689710;28;1613;-52
2021/12/05 03:11:02;;;;;;;9.45;2.80;;;;;;;3.41;96.30;99219.53;686769;28;1267;-51
2021/12/05 03:11:25;;;;;;;9.02;2.60;;;;;;;3.38;96.51;99224.72;687587;28;1258;-53
2021/12/05 03:11:46;;;;;;;10.63;2.50;;;;;;;3.34;96.06;99222.97;687401;28;1883;-51
2021/12/05 03:12:10;;;;;;;11.50;2.70;;;;;;;3.31;96.66;99225.56;688055;28;3464;-51
2021/12/05 03:12:33;;;;;;;7.88;2.40;;;;;;;3.44;96.29;99220.41;683765;28;1286;-53
2021/12/05 03:12:54;;;;;;;7.80;2.38;;;;;;;3.49;95.00;99218.69;684676;28;4574;-54
2021/12/05 03:13:15;;;;;;;9.00;2.30;;;;;;;3.45;95.07;99216.94;682036;28;1164;-54
2021/12/05 03:13:37;;;;;;;9.05;2.47;;;;;;;3.44;95.19;99217.84;684301;28;1819;-52
2021/12/05 03:13:58;;;;;;;9.95;2.72;;;;;;;3.45;95.07;99219.53;687192;28;1403;-52
2021/12/05 03:14:22;;;;;;;10.45;2.60;;;;;;;3.47;95.54;99223.00;690498;28;1082;-54
2021/12/05 03:14:44;;;;;;;9.82;2.30;;;;;;;3.54;94.80;99214.38;688844;28;3415;-50
2021/12/05 03:15:09;;;;;;;8.85;2.50;;;;;;;3.53;94.38;99208.38;690788;28;1987;-52
2021/12/05 03:15:29;;;;;;;7.30;2.60;;;;;;;3.56;94.49;99210.09;687955;28;1199;-53
2021/12/05 03:15:50;;;;;;;8.33;2.57;;;;;;;3.51;95.69;99211.81;686775;28;1332;-51
2021/12/05 03:16:12;;;;;;;9.18;2.60;;;;;;;3.47;95.99;99212.66;685434;28;4379;-54
2021/12/05 03:16:35;;;;;;;9.68;3.13;;;;;;;3.44;95.01;99215.25;690149;28;1369;-52
2021/12/05 03:16:56;;;;;;;8.50;2.40;;;;;;;3.38;95.24;99222.13;689321;28;2079;-50
2021/12/05 03:17:17;;;;;;;9.07;2.50;;;;;;;3.35;96.02;99216.09;689608;28;1260;-52
2021/12/05 03:17:38;;;;;;;9.57;2.67;;;;;;;3.41;95.18;99211.78;688841;28;3474;-51
2021/12/05 03:17:59;;;;;;;7.80;2.50;;;;;;;3.49;95.06;99204.06;686123;28;1397;-52
2021/12/05 03:18:20;;;;;;;9.45;2.47;;;;;;;3.47;95.15;99210.06;686990;28;1071;-52
2021/12/05 03:18:41;;;;;;;10.97;2.87;;;;;;;3.41;94.93;99200.59;684887;28;1272;-51
2021/12/05 03:19:03;;;;;;;8.10;2.55;;;;;;;3.38;95.99;99206.63;683336;28;4422;-53
2021/12/05 03:19:24;;;;;;;8.48;2.63;;;;;;;3.38;96.07;99206.63;686631;28;1361;-56
2021/12/05 03:19:45;;;;;;;10.57;2.50;;;;;;;3.38;96.92;99209.22;688157;28;1396;-51
2021/12/05 03:20:06;;;;;;;10.07;2.33;;;;;;;3.35;96.78;99208.34;688907;28;1235;-54
2021/12/05 03:20:28;;;;;;;9.10;2.42;;;;;;;3.46;96.36;99205.75;686736;28;4411;-51
2021/12/05 03:20:48;;;;;;;7.60;2.45;;;;;;;3.47;94.92;99204.91;685720;28;1397;-54
2021/12/05 03:21:09;;;;;;;7.07;2.10;;;;;;;3.52;94.02;99205.78;687138;28;1438;-53
2021/12/05 03:21:32;;;;;;;7.03;2.10;;;;;;;3.52;94.43;99209.22;686230;28;1351;-52
2021/12/05 03:21:53;;;;;;;7.10;2.22;;;;;;;3.48;94.80;99201.47;684962;28;2132;-55
2021/12/05 03:22:17;;;;;;;9.23;2.50;;;;;;;3.41;95.74;99211.78;684441;28;5062;-51
2021/12/05 03:22:39;;;;;;;8.38;2.42;;;;;;;3.34;96.97;99204.03;683685;28;1420;-51
2021/12/05 03:23:00;;;;;;;9.68;2.90;;;;;;;3.29;96.72;99209.19;682395;28;1751;-52
2021/12/05 03:23:21;;;;;;;10.13;2.70;;;;;;;3.28;96.66;99211.78;680298;28;3540;-51
2021/12/05 03:23:45;;;;;;;9.65;2.83;;;;;;;3.22;96.28;99204.88;683007;28;1480;-52
2021/12/05 03:24:08;;;;;;;12.38;2.90;;;;;;;3.27;96.87;99205.75;684924;28;2213;-56
2021/12/05 03:24:29;;;;;;;9.77;2.55;;;;;;;3.26;95.79;99210.94;687092;28;1353;-53
2021/12/05 03:24:51;;;;;;;8.98;2.35;;;;;;;3.24;95.22;99208.34;687825;28;1381;-51
2021/12/05 03:25:12;;;;;;;8.20;2.05;;;;;;;3.22;96.26;99208.31;684727;28;4497;-54
2021/12/05 03:25:33;;;;;;;8.20;2.33;;;;;;;3.20;96.38;99214.34;685661;28;1515;-54
2021/12/05 03:25:55;;;;;;;9.27;2.58;;;;;;;3.32;96.19;99206.59;689476;28;3123;-53
2021/12/05 03:26:23;;;;;;;10.43;2.35;;;;;;;3.45;94.31;99209.19;683007;28;3819;-53
2021/12/05 03:26:46;;;;;;;8.70;2.58;;;;;;;3.40;95.57;99207.47;683295;28;1380;-54
2021/12/05 03:27:07;;;;;;;8.80;2.33;;;;;;;3.55;94.31;99203.19;680414;28;1356;-51
2021/12/05 03:27:30;;;;;;;8.85;2.70;;;;;;;3.61;93.76;99198.00;678744;28;1240;-53
2021/12/05 03:27:52;;;;;;;9.38;2.70;;;;;;;3.62;93.67;99202.31;678775;29;1244;-55
2021/12/05 03:28:13;;;;;;;9.32;2.58;;;;;;;3.61;93.47;99202.31;681944;28;4371;-53
2021/12/05 03:28:35;;;;;;;10.70;2.50;;;;;;;3.53;93.31;99205.78;683316;28;1057;-51
2021/12/05 03:28:57;;;;;;;10.88;2.60;;;;;;;3.50;93.76;99202.31;683711;28;3009;-54
2021/12/05 03:29:20;;;;;;;9.05;2.65;;;;;;;3.49;94.31;99208.34;685934;28;3776;-52
2021/12/05 03:29:40;;;;;;;7.43;2.58;;;;;;;3.50;93.02;99204.91;689785;28;1120;-51
2021/12/05 03:30:04;;;;;;;7.60;2.65;;;;;;;3.61;92.58;99202.31;686267;28;1587;-51
2021/12/05 03:30:27;;;;;;;9.35;2.35;;;;;;;3.57;93.39;99198.88;681155;28;1353;-54
2021/12/05 03:30:48;;;;;;;8.32;2.30;;;;;;;3.62;92.81;99194.56;674417;28;5625;-53
2021/12/05 03:31:10;;;;;;;8.07;2.30;;;;;;;3.56;93.82;99199.75;681509;28;6089;-53
2021/12/05 03:31:32;;;;;;;9.15;2.40;;;;;;;3.50;95.01;99199.75;687531;28;1215;-51
2021/12/05 03:31:55;;;;;;;8.10;2.50;;;;;;;3.47;94.66;99200.59;689236;28;5889;-55
2021/12/05 03:32:18;;;;;;;7.60;2.45;;;;;;;3.63;92.81;99201.47;691012;28;1439;-50
2021/12/05 03:32:41;;;;;;;8.20;2.30;;;;;;;3.60;92.25;99192.84;688810;28;1552;-52
2021/12/05 03:33:02;;;;;;;7.57;2.20;;;;;;;3.65;92.27;99198.88;689861;28;6398;-52
2021/12/05 03:33:23;;;;;;;8.32;2.30;;;;;;;3.61;92.54;99198.00;684922;28;1724;-51
2021/12/05 03:33:44;;;;;;;8.50;2.37;;;;;;;3.61;92.90;99197.16;683565;28;1626;-52
2021/12/05 03:34:08;;;;;;;10.00;2.67;;;;;;;3.58;92.86;99193.69;683591;28;4447;-51
2021/12/05 03:34:29;;;;;;;9.45;2.45;;;;;;;3.50;94.05;99199.75;686287;28;1394;-56
2021/12/05 03:34:52;;;;;;;10.38;2.20;;;;;;;3.59;93.68;99199.75;686187;28;3433;-51
2021/12/05 03:35:13;;;;;;;7.93;2.10;;;;;;;3.58;92.74;99200.59;686725;28;5741;-51
2021/12/05 03:35:34;;;;;;;7.85;2.20;;;;;;;3.53;93.15;99199.72;690910;28;1346;-53
2021/12/05 03:35:58;;;;;;;9.45;2.30;;;;;;;3.48;93.96;99201.47;688757;28;1715;-53
2021/12/05 03:36:19;;;;;;;10.23;2.50;;;;;;;3.43;94.46;99200.59;687597;28;1989;-53
2021/12/05 03:36:43;;;;;;;7.95;2.40;;;;;;;3.37;94.80;99198.88;684561;28;1980;-53
2021/12/05 03:37:05;;;;;;;8.43;2.60;;;;;;;3.30;94.75;99199.75;686600;28;4381;-52
2021/12/05 03:37:28;;;;;;;11.38;2.65;;;;;;;3.27;95.41;99210.91;687097;28;1317;-52
2021/12/05 03:37:55;;;;;;;11.77;2.70;;;;;;;3.24;95.45;99203.19;685752;28;3458;-52
2021/12/05 03:38:16;;;;;;;9.38;2.30;;;;;;;3.21;96.12;99205.72;682364;28;1429;-51
2021/12/05 03:38:39;;;;;;;7.93;2.20;;;;;;;3.16;97.59;99203.16;682883;28;2037;-52
2021/12/05 03:39:07;;;;;;;10.93;2.50;;;;;;;3.12;97.65;99203.16;684467;28;2220;-51
2021/12/05 03:39:28;;;;;;;10.68;2.72;;;;;;;3.09;97.59;99205.69;682866;28;5770;-54
2021/12/05 03:39:48;;;;;;;11.05;2.72;;;;;;;3.09;97.67;99208.28;683729;28;2058;-51
2021/12/05 03:40:10;;;;;;;11.87;2.90;;;;;;;3.06;97.82;99212.59;684080;28;4510;-53
2021/12/05 03:40:33;;;;;;;8.23;2.20;;;;;;;3.05;96.69;99210.88;678390;28;3080;-50
2021/12/05 03:40:55;;;;;;;8.95;2.33;;;;;;;3.07;96.51;99208.28;681006;28;3730;-52
2021/12/05 03:41:18;;;;;;;8.73;2.30;;;;;;;3.06;96.85;99204.00;683454;28;1507;-54
2021/12/05 03:41:41;;;;;;;9.45;2.40;;;;;;;3.10;96.14;99202.28;684514;28;1376;-51
2021/12/05 03:42:03;;;;;;;7.45;2.28;;;;;;;3.21;95.37;99201.44;684553;28;1346;-54
2021/12/05 03:42:24;;;;;;;10.15;2.60;;;;;;;3.20;96.61;99209.19;685000;28;1505;-52
2021/12/05 03:42:45;;;;;;;9.57;2.50;;;;;;;3.15;97.42;99204.00;682788;28;1398;-54
2021/12/05 03:43:11;;;;;;;8.38;2.42;;;;;;;3.23;97.28;99206.63;682680;28;4521;-54
2021/12/05 03:43:32;;;;;;;10.27;2.30;;;;;;;3.24;96.59;99206.59;686340;28;3410;-51
2021/12/05 03:43:54;;;;;;;11.38;2.53;;;;;;;3.20;95.38;99204.88;686125;28;1279;-54
2021/12/05 03:44:17;;;;;;;12.90;2.88;;;;;;;3.25;95.20;99207.47;688181;28;2157;-52
2021/12/05 03:44:39;;;;;;;9.98;2.35;;;;;;;3.23;96.38;99202.28;687911;28;1318;-51
2021/12/05 03:44:59;;;;;;;9.35;2.65;;;;;;;3.20;96.06;99207.47;683857;28;1550;-54
2021/12/05 03:45:27;;;;;;;9.95;2.80;;;;;;;3.17;96.38;99207.47;684995;28;1392;-52
2021/12/05 03:45:51;;;;;;;8.32;2.10;;;;;;;3.14;96.17;99210.00;682616;28;1439;-52
2021/12/05 03:46:15;;;;;;;8.80;2.63;;;;;;;3.18;95.78;99206.59;685548;28;5167;-55
2021/12/05 03:46:37;;;;;;;9.95;2.72;;;;;;;3.16;96.03;99204.88;681946;28;4070;-51
2021/12/05 03:46:58;;;;;;;11.10;3.10;;;;;;;3.14;96.19;99211.75;685505;28;1432;-53
2021/12/05 03:47:19;;;;;;;10.88;2.75;;;;;;;3.11;97.38;99214.34;686951;28;1282;-50
2021/12/05 03:47:40;;;;;;;10.27;2.60;;;;;;;3.09;97.84;99213.44;686699;28;1466;-51
2021/12/05 03:48:03;;;;;;;8.60;2.50;;;;;;;3.06;97.44;99215.19;686396;28;6179;-51
2021/12/05 03:48:29;;;;;;;8.60;2.60;;;;;;;3.03;97.73;99215.19;683098;28;1908;-53
2021/12/05 03:48:58;;;;;;;8.52;2.47;;;;;;;2.98;97.94;99211.72;686493;28;1680;-52
2021/12/05 03:49:20;;;;;;;9.38;2.58;;;;;;;2.97;97.96;99219.47;680532;28;5048;-55
2021/12/05 03:49:41;;;;;;;9.90;2.65;;;;;;;2.94;98.91;99216.88;678730;29;1940;-51
2021/12/05 03:50:06;;;;;;;8.82;2.50;;;;;;;3.10;97.75;99210.88;678933;28;2144;-53
2021/12/05 03:50:27;;;;;;;8.00;2.50;;;;;;;3.23;96.17;99216.94;684103;28;1243;-52
2021/12/05 03:50:49;;;;;;;9.17;2.50;;;;;;;3.28;95.29;99216.94;681374;28;1289;-52
2021/12/05 03:51:14;;;;;;;9.55;2.20;;;;;;;3.28;93.80;99210.06;678239;29;1407;-55
2021/12/05 03:51:38;;;;;;;8.23;2.20;;;;;;;3.28;94.93;99214.34;680212;28;1121;-54
2021/12/05 03:52:06;;;;;;;9.45;2.20;;;;;;;3.32;93.34;99210.91;679832;28;4520;-53
2021/12/05 03:52:27;;;;;;;9.02;2.50;;;;;;;3.31;93.43;99215.22;683448;28;2091;-51
2021/12/05 03:52:47;;;;;;;8.93;2.40;;;;;;;3.33;92.50;99217.81;686531;28;1241;-53
2021/12/05 03:53:09;;;;;;;9.13;2.42;;;;;;;3.41;92.43;99209.19;689870;28;1246;-51
2021/12/05 03:53:30;;;;;;;10.57;2.30;;;;;;;3.56;92.00;99210.94;685106;28;1535;-54
2021/12/05 03:53:52;;;;;;;8.73;2.33;;;;;;;3.52;92.64;99203.19;687722;28;1271;-52
2021/12/05 03:54:13;;;;;;;7.80;2.10;;;;;;;3.63;91.15;99204.06;686798;28;1178;-51
2021/12/05 03:54:34;;;;;;;6.90;2.20;;;;;;;3.70;90.58;99208.34;689333;28;1159;-52
2021/12/05 03:54:54;;;;;;;8.65;2.30;;;;;;;3.80;90.37;99205.78;688327;28;4567;-55
2021/12/05 03:55:16;;;;;;;10.13;2.40;;;;;;;3.78;90.36;99204.91;684837;28;3601;-54
2021/12/05 03:55:39;;;;;;;9.33;2.33;;;;;;;3.75;90.38;99200.59;688433;28;1250;-54
2021/12/05 03:56:03;;;;;;;8.73;2.20;;;;;;;3.69;90.71;99206.63;689844;28;1428;-53
2021/12/05 03:56:24;;;;;;;9.23;2.30;;;;;;;3.61;91.84;99213.53;691312;28;1981;-53
2021/12/05 03:56:46;;;;;;;8.30;2.38;;;;;;;3.56;92.89;99203.19;690028;28;1333;-53
2021/12/05 03:57:10;;;;;;;10.07;2.25;;;;;;;3.48;93.62;99211.81;691084;28;2358;-52
2021/12/05 03:57:31;;;;;;;9.77;2.60;;;;;;;3.40;93.44;99207.47;689941;28;1359;-55
2021/12/05 03:57:55;;;;;;;8.73;2.50;;;;;;;3.35;94.01;99211.78;686993;28;4389;-56
2021/12/05 03:58:20;;;;;;;11.00;2.63;;;;;;;3.33;93.15;99218.66;686911;28;1543;-52
2021/12/05 03:58:40;;;;;;;8.20;2.75;;;;;;;3.28;94.38;99211.78;686961;28;1449;-55
2021/12/05 03:59:05;;;;;;;8.93;2.80;;;;;;;3.35;92.98;99210.91;688243;28;1635;-53
2021/12/05 03:59:28;;;;;;;6.82;2.15;;;;;;;3.37;92.34;99204.91;689534;28;1396;-52
2021/12/05 03:59:49;;;;;;;8.80;2.40;;;;;;;3.44;92.00;99204.91;686879;28;1591;-52
2021/12/05 04:00:27;;;;;;;8.40;2.37;;;;;;;3.38;92.21;99200.59;685962;28;1253;-52
2021/12/05 04:00:52;;;;;;;8.55;2.70;;;;;;;3.30;93.20;99203.16;684041;28;3635;-52
2021/12/05 04:01:14;;;;;;;10.30;2.47;;;;;;;3.25;94.47;99204.88;685208;28;4923;-52
2021/12/05 04:01:39;;;;;;;10.25;2.30;;;;;;;3.21;95.04;99210.91;689228;28;1616;-54
2021/12/05 04:02:03;;;;;;;9.80;2.30;;;;;;;3.19;95.14;99207.47;688184;28;1290;-51
2021/12/05 04:02:24;;;;;;;8.02;2.15;;;;;;;3.30;93.64;99213.50;686460;28;1341;-51
2021/12/05 04:02:47;;;;;;;10.23;2.42;;;;;;;3.26;94.13;99205.75;686082;28;1225;-52
2021/12/05 04:03:11;;;;;;;7.07;2.20;;;;;;;3.21;94.08;99203.16;682416;28;1493;-54
2021/12/05 04:03:33;;;;;;;6.63;2.15;;;;;;;3.16;94.40;99205.72;681509;28;3251;-52
2021/12/05 04:03:55;;;;;;;9.13;2.33;;;;;;;3.13;95.56;99205.72;684722;28;4522;-54
2021/12/05 04:04:18;;;;;;;11.43;2.50;;;;;;;3.11;95.91;99204.84;685002;28;1660;-51
2021/12/05 04:04:40;;;;;;;8.73;2.22;;;;;;;3.10;96.01;99210.03;683737;28;2116;-52
2021/12/05 04:05:02;;;;;;;11.07;2.50;;;;;;;3.08;95.79;99211.75;683916;28;6512;-51
2021/12/05 04:05:24;;;;;;;10.07;2.22;;;;;;;3.06;95.41;99207.44;679797;28;1260;-51
2021/12/05 04:05:46;;;;;;;8.10;2.30;;;;;;;3.06;95.76;99209.16;676644;29;1487;-51
2021/12/05 04:06:10;;;;;;;8.77;2.17;;;;;;;3.03;96.50;99209.13;681119;28;1401;-51